Time;durP1;ratioP1;P1;durP2;ratioP2;P2;SDS_P1;SDS_P2;PMS_P1;PMS_P2;Temp;Humidity;BMP_temperature;BMP_pressure;BME280_temperature;BME280_humidity;BME280_pressure;Samples;Min_cycle;Max_cycle;Signal;HPM_P1;HPM_P2
2021/08/13 00:00:50;;;;;;;2.49;2.23;;;;;;;21.82;71.47;100748.28;;;;-51
2021/08/13 00:03:50;;;;;;;2.88;2.33;;;;;;;21.82;71.44;100749.75;;;;-52
2021/08/13 00:06:50;;;;;;;3.79;2.21;;;;;;;21.81;71.47;100742.59;;;;-52
2021/08/13 00:09:50;;;;;;;2.99;2.24;;;;;;;21.81;71.47;100732.72;;;;-51
2021/08/13 00:12:50;;;;;;;2.26;2.03;;;;;;;21.81;71.50;100737.05;;;;-52
2021/08/13 00:15:50;;;;;;;2.94;2.22;;;;;;;21.81;71.48;100738.81;;;;-52
2021/08/13 00:18:50;;;;;;;2.37;2.15;;;;;;;21.80;71.46;100731.80;;;;-52
2021/08/13 00:21:50;;;;;;;3.35;2.20;;;;;;;21.80;71.46;100731.31;;;;-51
2021/08/13 00:24:51;;;;;;;2.55;2.14;;;;;;;21.79;71.49;100730.11;;;;-52
2021/08/13 00:27:50;;;;;;;3.29;2.21;;;;;;;21.79;71.52;100732.71;;;;-51
2021/08/13 00:30:50;;;;;;;2.35;2.15;;;;;;;21.79;71.51;100729.45;;;;-51
2021/08/13 00:33:50;;;;;;;2.91;2.16;;;;;;;21.78;71.51;100734.81;;;;-52
2021/08/13 00:36:50;;;;;;;2.51;2.20;;;;;;;21.78;71.51;100735.30;;;;-51
2021/08/13 00:39:50;;;;;;;3.07;2.25;;;;;;;21.77;71.48;100739.97;;;;-52
2021/08/13 00:42:50;;;;;;;2.38;2.17;;;;;;;21.78;71.48;100744.20;;;;-52
2021/08/13 00:45:50;;;;;;;2.37;2.17;;;;;;;21.78;71.61;100752.45;;;;-51
2021/08/13 00:48:50;;;;;;;2.57;2.25;;;;;;;21.78;71.55;100753.19;;;;-51
2021/08/13 00:51:50;;;;;;;2.27;2.07;;;;;;;21.77;71.57;100747.48;;;;-52
2021/08/13 00:54:50;;;;;;;2.46;2.15;;;;;;;21.76;71.54;100746.89;;;;-52
2021/08/13 00:57:50;;;;;;;2.59;2.39;;;;;;;21.76;71.57;100744.94;;;;-52
2021/08/13 01:00:51;;;;;;;2.73;2.30;;;;;;;21.76;71.51;100738.82;;;;-53
2021/08/13 01:03:50;;;;;;;2.40;2.20;;;;;;;21.76;71.53;100741.92;;;;-52
2021/08/13 01:06:50;;;;;;;3.00;2.20;;;;;;;21.75;71.56;100741.60;;;;-52
2021/08/13 01:09:50;;;;;;;3.11;2.20;;;;;;;21.75;71.57;100736.80;;;;-52
2021/08/13 01:12:51;;;;;;;2.29;2.09;;;;;;;21.75;71.54;100733.44;;;;-52
2021/08/13 01:15:49;;;;;;;2.51;2.31;;;;;;;21.75;71.60;100739.72;;;;-51
2021/08/13 01:18:50;;;;;;;2.46;2.11;;;;;;;21.74;71.57;100746.89;;;;-52
2021/08/13 01:21:50;;;;;;;2.55;2.25;;;;;;;21.74;71.54;100752.27;;;;-52
2021/08/13 01:24:50;;;;;;;2.58;2.08;;;;;;;21.74;71.57;100758.14;;;;-52
2021/08/13 01:27:50;;;;;;;2.35;2.15;;;;;;;21.73;71.58;100754.56;;;;-52
2021/08/13 01:30:50;;;;;;;2.66;2.25;;;;;;;21.74;71.62;100755.86;;;;-51
2021/08/13 01:33:50;;;;;;;2.39;2.16;;;;;;;21.74;71.60;100749.75;;;;-52
2021/08/13 01:36:50;;;;;;;2.90;2.29;;;;;;;21.73;71.52;100756.28;;;;-52
2021/08/13 01:39:50;;;;;;;2.67;2.19;;;;;;;21.72;71.54;100755.94;;;;-52
2021/08/13 01:42:50;;;;;;;2.36;2.14;;;;;;;21.73;71.57;100748.53;;;;-52
2021/08/13 01:45:50;;;;;;;2.35;2.15;;;;;;;21.72;71.58;100738.56;;;;-55
2021/08/13 01:48:49;;;;;;;2.41;2.13;;;;;;;21.72;71.53;100728.04;;;;-52
2021/08/13 01:51:50;;;;;;;2.84;2.10;;;;;;;21.71;71.58;100729.44;;;;-52
2021/08/13 01:54:50;;;;;;;2.36;2.15;;;;;;;21.72;71.53;100736.61;;;;-53
2021/08/13 01:57:50;;;;;;;2.45;2.25;;;;;;;21.71;71.62;100732.70;;;;-52
2021/08/13 02:00:50;;;;;;;2.51;2.31;;;;;;;21.71;71.60;100729.69;;;;-52
2021/08/13 02:03:50;;;;;;;2.91;2.31;;;;;;;21.71;71.57;100733.03;;;;-52
2021/08/13 02:06:50;;;;;;;2.47;2.20;;;;;;;21.71;71.60;100740.62;;;;-52
2021/08/13 02:09:50;;;;;;;2.29;1.99;;;;;;;21.71;71.59;100745.02;;;;-52
2021/08/13 02:12:50;;;;;;;2.45;2.25;;;;;;;21.70;71.58;100746.22;;;;-52
2021/08/13 02:15:50;;;;;;;2.45;2.25;;;;;;;21.70;71.59;100752.34;;;;-52
2021/08/13 02:18:50;;;;;;;2.65;2.27;;;;;;;21.70;71.61;100757.16;;;;-53
2021/08/13 02:21:50;;;;;;;2.35;2.15;;;;;;;21.70;71.59;100769.47;;;;-52
2021/08/13 02:24:50;;;;;;;2.43;2.23;;;;;;;21.70;71.59;100780.33;;;;-52
2021/08/13 02:27:50;;;;;;;2.33;2.13;;;;;;;21.69;71.60;100785.30;;;;-51
2021/08/13 02:30:50;;;;;;;2.31;2.11;;;;;;;21.69;71.56;100780.34;;;;-52
2021/08/13 02:33:50;;;;;;;2.25;2.05;;;;;;;21.68;71.60;100769.39;;;;-51
2021/08/13 02:36:50;;;;;;;2.35;2.13;;;;;;;21.69;71.59;100771.20;;;;-52
2021/08/13 02:39:50;;;;;;;2.36;2.16;;;;;;;21.68;71.58;100762.77;;;;-52
2021/08/13 02:42:49;;;;;;;2.29;2.09;;;;;;;21.68;71.57;100754.86;;;;-52
2021/08/13 02:45:50;;;;;;;2.42;2.22;;;;;;;21.68;71.60;100752.09;;;;-51
2021/08/13 02:48:50;;;;;;;2.21;2.01;;;;;;;21.68;71.61;100755.60;;;;-52
2021/08/13 02:51:49;;;;;;;2.30;2.10;;;;;;;21.68;71.60;100767.67;;;;-52
2021/08/13 02:54:50;;;;;;;2.31;2.11;;;;;;;21.68;71.59;100774.77;;;;-52
2021/08/13 02:57:50;;;;;;;2.31;2.11;;;;;;;21.67;71.57;100777.48;;;;-51
2021/08/13 03:00:50;;;;;;;2.41;2.21;;;;;;;21.67;71.55;100759.77;;;;-51
2021/08/13 03:03:50;;;;;;;2.33;2.13;;;;;;;21.67;71.57;100747.62;;;;-51
2021/08/13 03:06:50;;;;;;;3.04;2.05;;;;;;;21.67;71.57;100745.50;;;;-52
2021/08/13 03:09:50;;;;;;;2.51;2.27;;;;;;;21.67;71.56;100747.55;;;;-51
2021/08/13 03:12:50;;;;;;;2.31;2.11;;;;;;;21.67;71.57;100742.64;;;;-52
2021/08/13 03:15:49;;;;;;;2.30;2.10;;;;;;;21.67;71.59;100742.98;;;;-51
2021/08/13 03:18:49;;;;;;;2.29;2.09;;;;;;;21.67;71.56;100754.97;;;;-51
2021/08/13 03:21:50;;;;;;;2.35;2.15;;;;;;;21.66;71.54;100774.52;;;;-52
2021/08/13 03:24:49;;;;;;;2.61;2.19;;;;;;;21.66;71.57;100789.52;;;;-51
2021/08/13 03:27:50;;;;;;;2.30;2.10;;;;;;;21.66;71.56;100792.30;;;;-58
2021/08/13 03:30:50;;;;;;;2.53;2.33;;;;;;;21.66;71.52;100798.58;;;;-58
2021/08/13 03:33:49;;;;;;;2.22;2.02;;;;;;;21.66;71.62;100838.06;;;;-59
2021/08/13 03:36:49;;;;;;;2.39;2.19;;;;;;;21.67;71.57;100889.15;;;;-58
2021/08/13 03:39:50;;;;;;;2.27;2.07;;;;;;;21.67;71.58;100919.90;;;;-59
2021/08/13 03:42:51;;;;;;;2.39;2.19;;;;;;;21.66;71.58;100970.94;;;;-59
2021/08/13 03:45:51;;;;;;;3.11;2.07;;;;;;;21.66;71.59;100959.77;;;;-58
2021/08/13 03:48:50;;;;;;;2.43;2.23;;;;;;;21.66;71.59;100917.43;;;;-60
2021/08/13 03:51:50;;;;;;;3.17;2.35;;;;;;;21.66;71.57;100887.57;;;;-58
2021/08/13 03:54:49;;;;;;;2.43;2.23;;;;;;;21.65;71.60;100881.55;;;;-59
2021/08/13 03:57:49;;;;;;;2.53;2.11;;;;;;;21.65;71.50;100873.31;;;;-58
2021/08/13 04:00:50;;;;;;;2.20;2.00;;;;;;;21.65;71.57;100846.39;;;;-59
2021/08/13 04:03:50;;;;;;;2.37;2.17;;;;;;;21.65;71.52;100833.83;;;;-58
2021/08/13 04:06:49;;;;;;;2.32;2.12;;;;;;;21.65;71.62;100827.88;;;;-59
2021/08/13 04:09:49;;;;;;;2.45;2.21;;;;;;;21.65;71.57;100821.52;;;;-59
2021/08/13 04:12:49;;;;;;;2.36;2.16;;;;;;;21.65;71.53;100818.02;;;;-58
2021/08/13 04:15:50;;;;;;;2.56;2.36;;;;;;;21.64;71.59;100817.94;;;;-58
2021/08/13 04:18:50;;;;;;;2.37;2.17;;;;;;;21.63;71.54;100817.42;;;;-58
2021/08/13 04:21:49;;;;;;;2.39;2.19;;;;;;;21.64;71.55;100812.28;;;;-51
2021/08/13 04:24:50;;;;;;;2.53;2.26;;;;;;;21.64;71.52;100810.48;;;;-51
2021/08/13 04:27:49;;;;;;;2.42;2.22;;;;;;;21.64;71.57;100816.52;;;;-51
2021/08/13 04:30:50;;;;;;;2.27;2.07;;;;;;;21.63;71.59;100826.97;;;;-52
2021/08/13 04:33:50;;;;;;;2.31;2.11;;;;;;;21.64;71.58;100829.09;;;;-51
2021/08/13 04:36:50;;;;;;;2.47;2.27;;;;;;;21.63;71.54;100819.80;;;;-52
2021/08/13 04:39:49;;;;;;;2.31;2.11;;;;;;;21.63;71.55;100805.69;;;;-51
2021/08/13 04:42:50;;;;;;;2.42;2.22;;;;;;;21.62;71.53;100806.19;;;;-56
2021/08/13 04:45:49;;;;;;;2.67;2.21;;;;;;;21.63;71.63;100823.30;;;;-55
2021/08/13 04:48:50;;;;;;;2.50;2.30;;;;;;;21.62;71.55;100817.92;;;;-54
2021/08/13 04:51:50;;;;;;;2.44;2.24;;;;;;;21.63;71.67;100812.95;;;;-55
2021/08/13 04:54:49;;;;;;;3.10;2.23;;;;;;;21.62;71.62;100818.30;;;;-55
2021/08/13 04:57:49;;;;;;;2.29;2.09;;;;;;;21.62;71.64;100821.58;;;;-56
2021/08/13 05:00:50;;;;;;;2.47;2.25;;;;;;;21.62;71.60;100817.66;;;;-55
2021/08/13 05:03:50;;;;;;;2.50;2.30;;;;;;;21.62;71.68;100810.31;;;;-55
2021/08/13 05:06:49;;;;;;;2.37;2.17;;;;;;;21.61;71.65;100805.92;;;;-55
2021/08/13 05:09:49;;;;;;;2.32;2.12;;;;;;;21.62;71.64;100814.73;;;;-54
2021/08/13 05:12:50;;;;;;;2.54;2.34;;;;;;;21.61;71.65;100813.84;;;;-58
2021/08/13 05:15:49;;;;;;;2.43;2.23;;;;;;;21.61;71.65;100817.83;;;;-59
2021/08/13 05:18:49;;;;;;;2.61;2.41;;;;;;;21.61;71.64;100813.84;;;;-58
2021/08/13 05:21:49;;;;;;;2.54;2.34;;;;;;;21.61;71.63;100807.06;;;;-59
2021/08/13 05:24:49;;;;;;;2.50;2.30;;;;;;;21.60;71.69;100812.75;;;;-51
2021/08/13 05:27:50;;;;;;;2.45;2.25;;;;;;;21.61;71.67;100813.34;;;;-51
2021/08/13 05:30:49;;;;;;;2.50;2.30;;;;;;;21.61;71.69;100804.05;;;;-51
2021/08/13 05:33:49;;;;;;;2.54;2.34;;;;;;;21.60;71.65;100806.99;;;;-52
2021/08/13 05:36:50;;;;;;;2.68;2.48;;;;;;;21.59;71.71;100806.48;;;;-52
2021/08/13 05:39:50;;;;;;;2.49;2.29;;;;;;;21.60;71.69;100816.43;;;;-52
2021/08/13 05:42:50;;;;;;;2.63;2.43;;;;;;;21.59;71.65;100815.38;;;;-52
2021/08/13 05:45:49;;;;;;;2.80;2.60;;;;;;;21.59;71.71;100809.91;;;;-51
2021/08/13 05:48:50;;;;;;;2.89;2.55;;;;;;;21.59;71.67;100813.66;;;;-51
2021/08/13 05:51:49;;;;;;;2.79;2.50;;;;;;;21.59;71.72;100818.48;;;;-51
2021/08/13 05:54:49;;;;;;;2.67;2.47;;;;;;;21.59;71.71;100822.63;;;;-51
2021/08/13 05:57:50;;;;;;;2.99;2.59;;;;;;;21.59;71.69;100833.80;;;;-51
2021/08/13 06:00:49;;;;;;;2.82;2.62;;;;;;;21.59;71.75;100834.55;;;;-51
2021/08/13 06:03:49;;;;;;;2.57;2.37;;;;;;;21.60;71.67;100840.73;;;;-51
2021/08/13 06:06:49;;;;;;;3.25;2.55;;;;;;;21.59;71.70;100848.73;;;;-51
2021/08/13 06:09:49;;;;;;;2.90;2.62;;;;;;;21.59;71.68;100851.18;;;;-55
2021/08/13 06:12:50;;;;;;;2.58;2.38;;;;;;;21.59;71.70;100841.89;;;;-54
2021/08/13 06:15:50;;;;;;;3.97;2.51;;;;;;;21.58;71.72;100839.03;;;;-56
2021/08/13 06:18:50;;;;;;;2.77;2.57;;;;;;;21.58;71.75;100840.27;;;;-55
2021/08/13 06:21:49;;;;;;;2.69;2.49;;;;;;;21.58;71.75;100849.97;;;;-55
2021/08/13 06:24:50;;;;;;;2.58;2.38;;;;;;;21.58;71.70;100850.21;;;;-55
2021/08/13 06:27:49;;;;;;;2.59;2.39;;;;;;;21.59;71.74;100849.72;;;;-52
2021/08/13 06:30:50;;;;;;;2.93;2.53;;;;;;;21.58;71.74;100843.69;;;;-52
2021/08/13 06:33:50;;;;;;;2.91;2.65;;;;;;;21.58;71.71;100848.14;;;;-53
2021/08/13 06:36:50;;;;;;;2.83;2.63;;;;;;;21.58;71.71;100850.30;;;;-52
2021/08/13 06:39:50;;;;;;;2.61;2.41;;;;;;;21.57;71.71;100855.33;;;;-52
2021/08/13 06:42:49;;;;;;;2.84;2.59;;;;;;;21.58;71.72;100855.19;;;;-52
2021/08/13 06:45:49;;;;;;;2.83;2.45;;;;;;;21.59;71.66;100856.24;;;;-52
2021/08/13 06:48:50;;;;;;;2.53;2.33;;;;;;;21.58;71.67;100866.69;;;;-52
2021/08/13 06:51:49;;;;;;;2.93;2.31;;;;;;;21.58;71.67;100872.72;;;;-52
2021/08/13 06:54:49;;;;;;;2.75;2.55;;;;;;;21.57;71.68;100876.53;;;;-53
2021/08/13 06:57:49;;;;;;;2.65;2.45;;;;;;;21.58;71.74;100878.48;;;;-52
2021/08/13 07:00:49;;;;;;;2.54;2.34;;;;;;;21.58;71.73;100880.61;;;;-52
2021/08/13 07:03:49;;;;;;;2.58;2.38;;;;;;;21.58;71.70;100889.20;;;;-52
2021/08/13 07:06:50;;;;;;;2.51;2.31;;;;;;;21.58;71.67;100889.91;;;;-52
2021/08/13 07:09:49;;;;;;;2.69;2.47;;;;;;;21.58;71.66;100896.70;;;;-55
2021/08/13 07:12:49;;;;;;;2.76;2.56;;;;;;;21.57;71.75;100900.02;;;;-52
2021/08/13 07:15:49;;;;;;;2.71;2.51;;;;;;;21.58;71.68;100899.36;;;;-53
2021/08/13 07:18:49;;;;;;;2.63;2.43;;;;;;;21.58;71.72;100901.81;;;;-52
2021/08/13 07:21:49;;;;;;;4.19;2.60;;;;;;;21.59;71.94;100900.28;;;;-58
2021/08/13 07:24:49;;;;;;;3.10;2.57;;;;;;;21.60;72.62;100904.34;;;;-59
2021/08/13 07:27:50;;;;;;;3.25;2.79;;;;;;;21.62;72.57;100904.69;;;;-54
2021/08/13 07:30:49;;;;;;;3.35;2.89;;;;;;;21.64;72.84;100905.67;;;;-58
2021/08/13 07:33:50;;;;;;;9.97;3.56;;;;;;;21.66;73.52;100908.95;;;;-59
2021/08/13 07:36:49;;;;;;;3.56;2.84;;;;;;;21.67;73.35;100909.86;;;;-53
2021/08/13 07:39:49;;;;;;;4.03;3.52;;;;;;;21.69;73.52;100911.02;;;;-54
2021/08/13 07:42:50;;;;;;;4.57;3.27;;;;;;;21.71;73.51;100911.44;;;;-63
2021/08/13 07:45:49;;;;;;;5.60;3.47;;;;;;;21.72;73.37;100912.81;;;;-60
2021/08/13 07:48:49;;;;;;;3.66;2.99;;;;;;;21.74;73.41;100917.88;;;;-64
2021/08/13 07:51:49;;;;;;;4.23;3.22;;;;;;;21.75;73.19;100916.42;;;;-58
2021/08/13 07:54:49;;;;;;;3.88;3.23;;;;;;;21.76;73.10;100916.83;;;;-52
2021/08/13 07:57:49;;;;;;;5.10;3.15;;;;;;;21.77;73.19;100923.12;;;;-51
2021/08/13 08:00:50;;;;;;;4.83;3.43;;;;;;;21.78;73.01;100924.26;;;;-51
2021/08/13 08:03:49;;;;;;;4.75;3.26;;;;;;;21.79;72.98;100915.63;;;;-55
2021/08/13 08:06:49;;;;;;;4.60;3.23;;;;;;;21.80;72.94;100925.00;;;;-55
2021/08/13 08:09:49;;;;;;;4.01;3.08;;;;;;;21.82;72.95;100934.88;;;;-53
2021/08/13 08:12:49;;;;;;;5.33;3.35;;;;;;;21.83;73.00;100927.61;;;;-55
2021/08/13 08:15:50;;;;;;;4.25;3.31;;;;;;;21.84;73.02;100926.25;;;;-55
2021/08/13 08:18:49;;;;;;;5.78;3.65;;;;;;;21.84;72.87;100930.23;;;;-61
2021/08/13 08:21:49;;;;;;;5.70;3.28;;;;;;;21.84;72.86;100934.08;;;;-51
2021/08/13 08:24:49;;;;;;;5.99;3.39;;;;;;;21.83;72.71;100927.61;;;;-61
2021/08/13 08:27:49;;;;;;;4.59;3.28;;;;;;;21.83;72.80;100930.23;;;;-52
2021/08/13 08:30:49;;;;;;;3.76;3.29;;;;;;;21.83;72.71;100935.53;;;;-52
2021/08/13 08:33:49;;;;;;;3.98;3.37;;;;;;;21.82;72.58;100937.57;;;;-52
2021/08/13 08:36:49;;;;;;;4.22;3.41;;;;;;;21.82;72.60;100940.44;;;;-60
2021/08/13 08:39:50;;;;;;;4.01;3.30;;;;;;;21.82;72.55;100946.55;;;;-59
2021/08/13 08:42:49;;;;;;;3.92;3.05;;;;;;;21.82;72.54;100945.73;;;;-52
2021/08/13 08:45:49;;;;;;;3.73;3.25;;;;;;;21.82;72.43;100936.27;;;;-60
2021/08/13 08:48:49;;;;;;;3.85;3.16;;;;;;;21.83;72.33;100936.84;;;;-60
2021/08/13 08:51:49;;;;;;;3.64;3.29;;;;;;;21.82;72.33;100938.72;;;;-61
2021/08/13 08:54:49;;;;;;;4.38;3.24;;;;;;;21.82;72.53;100941.42;;;;-51
2021/08/13 08:57:49;;;;;;;4.64;3.39;;;;;;;21.82;72.49;100948.10;;;;-57
2021/08/13 09:00:49;;;;;;;4.95;3.27;;;;;;;21.83;72.44;100943.44;;;;-52
2021/08/13 09:03:50;;;;;;;3.55;3.25;;;;;;;21.84;72.51;100940.61;;;;-50
2021/08/13 09:06:49;;;;;;;3.89;3.28;;;;;;;21.84;72.44;100939.38;;;;-51
2021/08/13 09:09:49;;;;;;;5.01;3.38;;;;;;;21.86;72.60;100941.10;;;;-50
2021/08/13 09:12:49;;;;;;;4.66;3.21;;;;;;;21.86;72.48;100936.53;;;;-50
2021/08/13 09:15:49;;;;;;;6.40;3.61;;;;;;;21.87;72.76;100930.52;;;;-52
2021/08/13 09:18:49;;;;;;;4.92;3.33;;;;;;;21.89;72.77;100930.66;;;;-53
2021/08/13 09:21:49;;;;;;;7.29;3.59;;;;;;;21.90;72.60;100926.27;;;;-51
2021/08/13 09:24:50;;;;;;;6.59;3.47;;;;;;;21.90;72.51;100930.76;;;;-53
2021/08/13 09:27:49;;;;;;;5.13;3.17;;;;;;;21.91;72.64;100927.56;;;;-52
2021/08/13 09:30:49;;;;;;;6.93;3.55;;;;;;;21.91;72.77;100927.24;;;;-64
2021/08/13 09:33:50;;;;;;;7.71;3.23;;;;;;;21.92;72.73;100927.51;;;;-54
2021/08/13 09:36:49;;;;;;;7.61;3.62;;;;;;;21.93;72.73;100929.38;;;;-60
2021/08/13 09:39:49;;;;;;;8.35;3.64;;;;;;;21.95;72.74;100931.91;;;;-59
2021/08/13 09:42:49;;;;;;;5.84;3.36;;;;;;;21.95;72.80;100937.21;;;;-50
2021/08/13 09:45:50;;;;;;;5.91;3.37;;;;;;;21.96;72.68;100928.41;;;;-48
2021/08/13 09:48:49;;;;;;;7.45;3.65;;;;;;;21.97;72.63;100930.69;;;;-51
2021/08/13 09:51:49;;;;;;;6.72;3.36;;;;;;;21.98;72.73;100935.53;;;;-56
2021/08/13 09:54:49;;;;;;;5.07;3.10;;;;;;;21.99;72.70;100932.16;;;;-52
2021/08/13 09:57:49;;;;;;;4.74;3.36;;;;;;;22.00;72.61;100937.16;;;;-52
2021/08/13 10:00:50;;;;;;;7.32;3.53;;;;;;;22.01;72.49;100940.83;;;;-52
2021/08/13 10:03:49;;;;;;;7.12;3.61;;;;;;;22.02;72.77;100940.61;;;;-49
2021/08/13 10:06:49;;;;;;;5.54;3.40;;;;;;;22.04;72.72;100944.84;;;;-49
2021/08/13 10:09:50;;;;;;;5.31;3.56;;;;;;;22.04;72.69;100944.61;;;;-53
2021/08/13 10:12:49;;;;;;;4.35;3.48;;;;;;;22.05;72.64;100952.34;;;;-51
2021/08/13 10:15:49;;;;;;;6.04;3.52;;;;;;;22.06;72.62;100946.55;;;;-52
2021/08/13 10:18:49;;;;;;;7.38;3.51;;;;;;;22.06;72.64;100942.08;;;;-51
2021/08/13 10:21:49;;;;;;;6.16;3.31;;;;;;;22.07;72.58;100938.89;;;;-51
2021/08/13 10:24:50;;;;;;;5.59;3.67;;;;;;;22.07;72.71;100940.28;;;;-52
2021/08/13 10:27:49;;;;;;;6.31;3.65;;;;;;;22.07;72.58;100935.78;;;;-51
2021/08/13 10:30:49;;;;;;;5.38;3.11;;;;;;;22.08;72.57;100931.64;;;;-54
2021/08/13 10:33:50;;;;;;;6.15;3.60;;;;;;;22.08;72.63;100931.48;;;;-52
2021/08/13 10:36:49;;;;;;;5.20;3.59;;;;;;;22.09;72.62;100924.53;;;;-57
2021/08/13 10:39:49;;;;;;;7.39;3.32;;;;;;;22.10;72.56;100921.34;;;;-62
2021/08/13 10:42:49;;;;;;;5.10;3.42;;;;;;;22.10;72.54;100923.81;;;;-56
2021/08/13 10:45:50;;;;;;;5.80;3.38;;;;;;;22.10;72.58;100920.95;;;;-63
2021/08/13 10:48:49;;;;;;;4.45;3.51;;;;;;;22.11;72.58;100924.86;;;;-46
2021/08/13 10:51:49;;;;;;;7.43;3.61;;;;;;;22.11;72.30;100924.13;;;;-49
2021/08/13 10:54:49;;;;;;;8.17;3.59;;;;;;;22.10;72.27;100922.27;;;;-49
2021/08/13 10:57:49;;;;;;;5.75;3.44;;;;;;;22.09;72.48;100926.66;;;;-52
2021/08/13 11:00:49;;;;;;;6.49;3.61;;;;;;;22.09;72.38;100927.22;;;;-52
2021/08/13 11:03:49;;;;;;;4.53;3.47;;;;;;;22.09;72.27;100926.25;;;;-51
2021/08/13 11:06:49;;;;;;;4.87;3.30;;;;;;;22.08;72.22;100922.98;;;;-51
2021/08/13 11:09:49;;;;;;;6.85;3.27;;;;;;;22.08;72.23;100917.44;;;;-52
2021/08/13 11:12:49;;;;;;;5.27;3.35;;;;;;;22.08;72.21;100916.84;;;;-51
2021/08/13 11:15:49;;;;;;;6.25;3.50;;;;;;;22.08;72.12;100915.22;;;;-51
2021/08/13 11:18:50;;;;;;;5.89;3.27;;;;;;;22.07;72.08;100914.58;;;;-54
2021/08/13 11:21:50;;;;;;;5.06;3.49;;;;;;;22.07;72.13;100914.73;;;;-54
2021/08/13 11:24:50;;;;;;;4.78;3.23;;;;;;;22.06;72.04;100912.30;;;;-55
2021/08/13 11:27:49;;;;;;;6.32;3.25;;;;;;;22.06;72.08;100917.59;;;;-55
2021/08/13 11:30:49;;;;;;;4.30;3.23;;;;;;;22.06;72.03;100916.53;;;;-55
2021/08/13 11:33:49;;;;;;;5.43;3.38;;;;;;;22.06;71.96;100916.46;;;;-56
2021/08/13 11:36:49;;;;;;;6.05;3.39;;;;;;;22.05;72.00;100913.74;;;;-55
2021/08/13 11:39:50;;;;;;;4.22;3.13;;;;;;;22.04;71.99;100909.42;;;;-54
2021/08/13 11:42:49;;;;;;;3.92;3.23;;;;;;;22.05;71.90;100906.64;;;;-52
2021/08/13 11:45:50;;;;;;;4.17;3.10;;;;;;;22.05;71.93;100901.26;;;;-52
2021/08/13 11:48:49;;;;;;;3.92;3.32;;;;;;;22.04;71.91;100899.80;;;;-52
2021/08/13 11:51:49;;;;;;;5.36;3.40;;;;;;;22.04;71.95;100907.80;;;;-52
2021/08/13 11:54:49;;;;;;;5.42;3.22;;;;;;;22.04;71.91;100911.61;;;;-52
2021/08/13 11:57:49;;;;;;;5.36;3.45;;;;;;;22.04;71.91;100907.97;;;;-52
2021/08/13 12:00:49;;;;;;;3.43;3.13;;;;;;;22.04;71.83;100908.45;;;;-53
2021/08/13 12:03:50;;;;;;;4.73;3.06;;;;;;;22.04;71.88;100900.12;;;;-52
2021/08/13 12:06:49;;;;;;;4.55;3.17;;;;;;;22.03;71.87;100897.58;;;;-60
2021/08/13 12:09:50;;;;;;;3.39;2.94;;;;;;;22.04;71.79;100902.25;;;;-59
2021/08/13 12:12:49;;;;;;;4.29;3.09;;;;;;;22.03;71.80;100897.91;;;;-60
2021/08/13 12:15:49;;;;;;;3.76;3.05;;;;;;;22.02;71.87;100894.65;;;;-60
2021/08/13 12:18:50;;;;;;;4.92;3.09;;;;;;;22.03;71.83;100892.35;;;;-60
2021/08/13 12:21:49;;;;;;;3.97;3.11;;;;;;;22.03;71.83;100891.45;;;;-59
2021/08/13 12:24:49;;;;;;;4.53;3.17;;;;;;;22.02;71.78;100888.20;;;;-60
2021/08/13 12:27:49;;;;;;;3.63;3.12;;;;;;;22.02;71.79;100891.06;;;;-60
2021/08/13 12:30:49;;;;;;;4.18;3.02;;;;;;;22.02;71.77;100892.69;;;;-59
2021/08/13 12:33:49;;;;;;;4.93;3.23;;;;;;;22.02;71.75;100895.63;;;;-60
2021/08/13 12:36:49;;;;;;;3.53;2.83;;;;;;;22.02;71.78;100895.88;;;;-60
2021/08/13 12:39:49;;;;;;;3.41;2.94;;;;;;;22.02;71.76;100890.98;;;;-53
2021/08/13 12:42:51;;;;;;;4.29;3.17;;;;;;;22.01;71.75;100893.08;;;;-52
2021/08/13 12:45:49;;;;;;;3.70;3.02;;;;;;;22.01;71.76;100891.37;;;;-52
2021/08/13 12:48:49;;;;;;;3.35;2.99;;;;;;;22.01;71.74;100889.58;;;;-52
2021/08/13 12:51:49;;;;;;;3.41;3.11;;;;;;;22.01;71.73;100890.30;;;;-52
2021/08/13 12:54:49;;;;;;;9.92;3.39;;;;;;;22.01;71.83;100890.72;;;;-61
2021/08/13 12:57:49;;;;;;;4.51;3.00;;;;;;;22.03;71.86;100893.41;;;;-57
2021/08/13 13:00:49;;;;;;;4.13;3.11;;;;;;;22.04;71.92;100885.76;;;;-53
2021/08/13 13:03:49;;;;;;;5.45;3.24;;;;;;;22.07;71.86;100884.70;;;;-53
2021/08/13 13:06:49;;;;;;;5.71;3.32;;;;;;;22.07;71.97;100887.72;;;;-50
2021/08/13 13:09:49;;;;;;;4.10;3.01;;;;;;;22.08;72.00;100886.67;;;;-51
2021/08/13 13:12:50;;;;;;;5.69;3.23;;;;;;;22.09;72.02;100878.50;;;;-55
2021/08/13 13:15:49;;;;;;;6.63;3.41;;;;;;;22.09;72.15;100878.90;;;;-55
2021/08/13 13:18:49;;;;;;;4.67;3.18;;;;;;;22.10;72.14;100875.30;;;;-60
2021/08/13 13:21:50;;;;;;;6.59;3.33;;;;;;;22.12;72.12;100881.52;;;;-58
2021/08/13 13:24:49;;;;;;;3.59;3.02;;;;;;;22.13;72.16;100877.45;;;;-50
2021/08/13 13:27:49;;;;;;;5.22;3.31;;;;;;;22.13;72.14;100878.27;;;;-51
2021/08/13 13:30:50;;;;;;;4.48;3.39;;;;;;;22.13;72.08;100866.67;;;;-54
2021/08/13 13:33:49;;;;;;;4.95;3.37;;;;;;;22.15;72.20;100867.58;;;;-58
2021/08/13 13:36:49;;;;;;;3.55;3.11;;;;;;;22.15;72.15;100870.67;;;;-54
2021/08/13 13:39:49;;;;;;;5.66;3.38;;;;;;;22.16;72.30;100864.05;;;;-52
2021/08/13 13:42:49;;;;;;;4.73;3.25;;;;;;;22.16;72.18;100865.44;;;;-52
2021/08/13 13:45:49;;;;;;;4.45;3.33;;;;;;;22.16;72.04;100866.98;;;;-52
2021/08/13 13:48:49;;;;;;;5.09;3.20;;;;;;;22.15;72.08;100859.41;;;;-57
2021/08/13 13:51:49;;;;;;;4.98;3.41;;;;;;;22.14;72.14;100855.72;;;;-57
2021/08/13 13:54:49;;;;;;;5.46;3.30;;;;;;;22.13;72.07;100858.91;;;;-56
2021/08/13 13:57:49;;;;;;;5.97;3.39;;;;;;;22.14;72.02;100862.75;;;;-57
2021/08/13 14:00:49;;;;;;;5.66;3.19;;;;;;;22.13;71.97;100856.78;;;;-57
2021/08/13 14:03:49;;;;;;;4.69;3.25;;;;;;;22.13;71.93;100861.94;;;;-56
2021/08/13 14:06:49;;;;;;;3.64;3.13;;;;;;;22.13;71.92;100861.20;;;;-58
2021/08/13 14:09:49;;;;;;;4.17;3.23;;;;;;;22.13;71.88;100851.89;;;;-56
2021/08/13 14:12:49;;;;;;;4.69;3.45;;;;;;;22.12;71.87;100851.80;;;;-58
2021/08/13 14:15:49;;;;;;;5.52;3.40;;;;;;;22.12;71.90;100855.39;;;;-58
2021/08/13 14:18:49;;;;;;;4.85;3.03;;;;;;;22.11;71.83;100850.17;;;;-51
2021/08/13 14:21:49;;;;;;;5.89;3.15;;;;;;;22.11;71.90;100848.55;;;;-51
2021/08/13 14:24:50;;;;;;;3.99;3.19;;;;;;;22.12;71.89;100848.31;;;;-55
2021/08/13 14:27:49;;;;;;;4.27;3.13;;;;;;;22.14;71.98;100845.43;;;;-51
2021/08/13 14:30:49;;;;;;;5.14;3.31;;;;;;;22.16;72.02;100847.73;;;;-49
2021/08/13 14:33:49;;;;;;;5.70;3.15;;;;;;;22.16;72.00;100845.05;;;;-54
2021/08/13 14:36:49;;;;;;;4.85;3.16;;;;;;;22.18;72.08;100841.28;;;;-52
2021/08/13 14:39:49;;;;;;;4.79;3.27;;;;;;;22.18;71.99;100843.42;;;;-52
2021/08/13 14:42:49;;;;;;;4.00;3.27;;;;;;;22.19;72.06;100842.11;;;;-52
2021/08/13 14:45:49;;;;;;;4.68;3.27;;;;;;;22.20;72.11;100841.20;;;;-49
2021/08/13 14:48:49;;;;;;;4.61;3.05;;;;;;;22.21;72.04;100838.69;;;;-49
2021/08/13 14:51:49;;;;;;;3.71;3.18;;;;;;;22.22;72.12;100841.12;;;;-48
2021/08/13 14:54:49;;;;;;;4.92;3.10;;;;;;;22.23;72.08;100838.77;;;;-56
2021/08/13 14:57:49;;;;;;;4.36;3.15;;;;;;;22.24;72.07;100839.28;;;;-56
2021/08/13 15:00:49;;;;;;;3.95;3.21;;;;;;;22.24;71.97;100823.93;;;;-60
2021/08/13 15:03:49;;;;;;;4.37;3.40;;;;;;;22.24;71.88;100839.44;;;;-60
2021/08/13 15:06:49;;;;;;;5.37;3.11;;;;;;;22.23;71.97;100839.77;;;;-61
2021/08/13 15:09:49;;;;;;;3.55;3.10;;;;;;;22.22;72.02;100847.41;;;;-57
2021/08/13 15:12:49;;;;;;;4.51;3.17;;;;;;;22.21;71.89;100843.82;;;;-52
2021/08/13 15:15:49;;;;;;;4.20;3.21;;;;;;;22.21;71.88;100838.52;;;;-52
2021/08/13 15:18:49;;;;;;;5.13;2.99;;;;;;;22.20;71.90;100832.16;;;;-52
2021/08/13 15:21:49;;;;;;;3.87;3.05;;;;;;;22.19;71.93;100829.20;;;;-60
2021/08/13 15:24:49;;;;;;;5.63;3.19;;;;;;;22.20;72.00;100827.00;;;;-49
2021/08/13 15:27:49;;;;;;;5.00;2.89;;;;;;;22.20;71.99;100827.31;;;;-57
2021/08/13 15:30:49;;;;;;;5.23;3.00;;;;;;;22.21;71.91;100835.00;;;;-57
2021/08/13 15:33:49;;;;;;;3.45;3.02;;;;;;;22.21;71.95;100833.55;;;;-58
2021/08/13 15:36:49;;;;;;;5.62;2.98;;;;;;;22.19;71.99;100830.19;;;;-58
2021/08/13 15:39:49;;;;;;;7.89;3.35;;;;;;;22.19;71.97;100828.72;;;;-58
2021/08/13 15:42:49;;;;;;;6.08;3.03;;;;;;;22.19;71.91;100824.06;;;;-59
2021/08/13 15:45:51;;;;;;;6.03;3.21;;;;;;;22.18;71.89;100827.75;;;;-58
2021/08/13 15:48:49;;;;;;;6.60;3.19;;;;;;;22.19;71.89;100825.55;;;;-58
2021/08/13 15:51:49;;;;;;;4.97;2.79;;;;;;;22.17;71.84;100821.69;;;;-58
2021/08/13 15:54:49;;;;;;;3.68;3.17;;;;;;;22.18;71.85;100825.84;;;;-58
2021/08/13 15:57:49;;;;;;;5.07;2.99;;;;;;;22.17;71.86;100829.36;;;;-58
2021/08/13 16:00:49;;;;;;;4.69;2.88;;;;;;;22.17;71.82;100826.35;;;;-58
2021/08/13 16:03:50;;;;;;;3.91;2.75;;;;;;;22.17;71.79;100828.96;;;;-58
2021/08/13 16:06:49;;;;;;;4.21;2.84;;;;;;;22.17;71.79;100829.20;;;;-58
2021/08/13 16:09:49;;;;;;;3.38;3.08;;;;;;;22.17;71.75;100827.91;;;;-52
2021/08/13 16:12:49;;;;;;;3.87;2.81;;;;;;;22.16;71.78;100829.93;;;;-51
2021/08/13 16:15:52;;;;;;;4.39;3.01;;;;;;;22.16;71.75;100829.19;;;;-51
2021/08/13 16:18:49;;;;;;;3.66;3.03;;;;;;;22.16;71.76;100833.03;;;;-52
2021/08/13 16:21:49;;;;;;;6.01;2.99;;;;;;;22.15;71.75;100838.34;;;;-52
2021/08/13 16:24:49;;;;;;;4.13;2.96;;;;;;;22.16;71.74;100833.84;;;;-52
2021/08/13 16:27:49;;;;;;;6.18;2.81;;;;;;;22.16;71.85;100835.80;;;;-56
2021/08/13 16:30:49;;;;;;;4.11;2.95;;;;;;;22.16;71.85;100837.28;;;;-56
2021/08/13 16:33:49;;;;;;;4.91;3.10;;;;;;;22.16;71.73;100836.05;;;;-57
2021/08/13 16:36:49;;;;;;;4.01;2.92;;;;;;;22.15;71.81;100838.42;;;;-59
2021/08/13 16:39:49;;;;;;;4.85;3.07;;;;;;;22.15;71.79;100837.03;;;;-59
2021/08/13 16:42:49;;;;;;;3.71;2.93;;;;;;;22.14;71.83;100838.03;;;;-55